Time;durP1;ratioP1;P1;durP2;ratioP2;P2;SDS_P1;SDS_P2;PMS_P1;PMS_P2;Temp;Humidity;BMP_temperature;BMP_pressure;BME280_temperature;BME280_humidity;BME280_pressure;Samples;Min_cycle;Max_cycle;Signal;HPM_P1;HPM_P2
2022/01/19 00:00:06;;;;;;;;;;;0.50;75.70;;;;;;5023244;28;87095;-40
2022/01/19 00:02:32;;;;;;;;;;;0.50;75.60;;;;;;5022937;28;89691;-40
2022/01/19 00:04:57;;;;;;;;;;;0.50;75.70;;;;;;5022648;28;89533;-41
2022/01/19 00:07:23;;;;;;;;;;;0.50;75.50;;;;;;5021956;28;86524;-40
2022/01/19 00:09:48;;;;;;;;;;;0.50;75.60;;;;;;5023047;28;88408;-40
2022/01/19 00:12:14;;;;;;;;;;;0.50;75.60;;;;;;5025495;28;89677;-40
2022/01/19 00:14:39;;;;;;;;;;;0.40;75.80;;;;;;5022406;28;89108;-41
2022/01/19 00:17:05;;;;;;;;;;;0.40;75.80;;;;;;5022496;28;88046;-40
2022/01/19 00:19:30;;;;;;;;;;;0.40;75.60;;;;;;5022822;28;86931;-40
2022/01/19 00:21:56;;;;;;;;;;;0.40;75.50;;;;;;5022719;28;88933;-40
2022/01/19 00:24:21;;;;;;;;;;;0.40;75.70;;;;;;5022453;28;88060;-41
2022/01/19 00:26:47;;;;;;;;;;;0.40;75.60;;;;;;5022710;28;87280;-40
2022/01/19 00:29:13;;;;;;;;;;;0.40;75.60;;;;;;5022927;28;88601;-40
2022/01/19 00:31:38;;;;;;;;;;;0.40;75.60;;;;;;5028428;28;89026;-40
2022/01/19 00:34:04;;;;;;;;;;;0.40;75.70;;;;;;5026055;28;88225;-41
2022/01/19 00:36:29;;;;;;;;;;;0.40;75.60;;;;;;5025822;28;89324;-41
2022/01/19 00:38:55;;;;;;;;;;;0.40;75.50;;;;;;5025527;28;88063;-40
2022/01/19 00:41:20;;;;;;;;;;;0.40;75.60;;;;;;5025395;28;88931;-40
2022/01/19 00:43:46;;;;;;;;;;;0.40;75.50;;;;;;5025687;28;89379;-40
2022/01/19 00:46:11;;;;;;;;;;;0.40;75.60;;;;;;5025902;28;87000;-40
2022/01/19 00:48:40;;;;;;;;;;;0.30;75.40;;;;;;5026339;28;87231;-41
2022/01/19 00:51:06;;;;;;;;;;;0.30;75.40;;;;;;5025599;28;89376;-41
2022/01/19 00:53:31;;;;;;;;;;;0.30;75.30;;;;;;5028716;28;87141;-41
2022/01/19 00:55:57;;;;;;;;;;;0.40;75.50;;;;;;5026278;28;87337;-41
2022/01/19 00:58:22;;;;;;;;;;;0.30;75.40;;;;;;5025674;28;87134;-40
2022/01/19 01:00:48;;;;;;;;;;;0.30;75.30;;;;;;5025677;28;88664;-40
2022/01/19 01:03:13;;;;;;;;;;;0.30;75.40;;;;;;5024578;28;90433;-40
2022/01/19 01:05:39;;;;;;;;;;;0.30;75.50;;;;;;5025672;28;87229;-40
2022/01/19 01:08:04;;;;;;;;;;;0.30;75.30;;;;;;5025567;28;88965;-41
2022/01/19 01:10:31;;;;;;;;;;;0.30;75.30;;;;;;5025193;28;89914;-41
2022/01/19 01:13:16;;;;;;;;;;;0.30;75.20;;;;;;5025583;28;87063;-40
2022/01/19 01:16:00;;;;;;;;;;;0.20;75.50;;;;;;5028537;28;86919;-40
2022/01/19 01:18:26;;;;;;;;;;;0.30;75.20;;;;;;5025286;28;87030;-41
2022/01/19 01:20:53;;;;;;;;;;;0.30;75.30;;;;;;5026134;28;88860;-41
2022/01/19 01:23:20;;;;;;;;;;;0.20;75.10;;;;;;5025098;28;88411;-41
2022/01/19 01:25:46;;;;;;;;;;;0.20;75.40;;;;;;5025598;28;87097;-41
2022/01/19 01:28:12;;;;;;;;;;;0.20;75.40;;;;;;5024738;28;88687;-40
2022/01/19 01:30:37;;;;;;;;;;;0.20;75.30;;;;;;5024950;28;89830;-40
2022/01/19 01:33:03;;;;;;;;;;;0.20;75.30;;;;;;5025042;28;87213;-40
2022/01/19 01:35:30;;;;;;;;;;;0.20;75.10;;;;;;5025185;28;89006;-40
2022/01/19 01:37:55;;;;;;;;;;;0.20;75.30;;;;;;5027690;28;90002;-40
2022/01/19 01:40:24;;;;;;;;;;;0.20;75.30;;;;;;5025207;28;89057;-40
2022/01/19 01:42:50;;;;;;;;;;;0.20;75.00;;;;;;5024349;28;89838;-40
2022/01/19 01:45:17;;;;;;;;;;;0.10;75.10;;;;;;5025519;28;86436;-40
2022/01/19 01:47:48;;;;;;;;;;;0.10;75.30;;;;;;5024925;28;87381;-41
2022/01/19 01:55:25;;;;;;;;;;;0.10;75.20;;;;;;5025333;28;87537;-40
2022/01/19 01:57:51;;;;;;;;;;;0.10;75.10;;;;;;5024465;28;89331;-40
2022/01/19 02:00:18;;;;;;;;;;;0.10;75.40;;;;;;5027553;28;87135;-40
2022/01/19 02:02:45;;;;;;;;;;;0.00;75.40;;;;;;5024397;28;88464;-40
2022/01/19 02:05:13;;;;;;;;;;;0.00;75.40;;;;;;5025064;28;87160;-40
2022/01/19 02:10:18;;;;;;;;;;;0.10;75.40;;;;;;5024769;28;87219;-40
2022/01/19 02:23:46;;;;;;;;;;;0.00;75.20;;;;;;5027365;28;86954;-41
2022/01/19 02:26:19;;;;;;;;;;;0.00;75.20;;;;;;5024454;28;87795;-40
2022/01/19 02:29:13;;;;;;;;;;;0.00;75.40;;;;;;5024396;28;88947;-40
2022/01/19 02:36:33;;;;;;;;;;;0.00;75.50;;;;;;5023932;28;89832;-40
2022/01/19 02:42:34;;;;;;;;;;;0.00;75.50;;;;;;5023871;28;87186;-40
2022/01/19 02:49:52;;;;;;;;;;;-0.10;75.60;;;;;;5024469;28;87445;-40
2022/01/19 02:52:18;;;;;;;;;;;-0.10;75.60;;;;;;5023581;28;88463;-40
2022/01/19 02:54:44;;;;;;;;;;;-0.10;75.60;;;;;;5023216;28;87128;-40
2022/01/19 02:57:12;;;;;;;;;;;-0.20;75.60;;;;;;5024177;28;89050;-40
2022/01/19 03:10:19;;;;;;;;;;;-0.20;75.80;;;;;;5023548;28;87844;-40
2022/01/19 03:12:45;;;;;;;;;;;-0.20;75.90;;;;;;5023639;28;88349;-40
2022/01/19 03:15:11;;;;;;;;;;;-0.20;75.80;;;;;;5023613;28;87217;-40
2022/01/19 03:17:36;;;;;;;;;;;-0.20;75.80;;;;;;5023598;28;88001;-40
2022/01/19 03:20:03;;;;;;;;;;;-0.20;75.70;;;;;;5023258;28;88339;-40
2022/01/19 03:22:35;;;;;;;;;;;-0.20;75.80;;;;;;5023337;28;87071;-41
2022/01/19 03:25:02;;;;;;;;;;;-0.30;75.70;;;;;;5023618;28;87794;-40
2022/01/19 03:27:28;;;;;;;;;;;-0.20;75.80;;;;;;5023721;28;88705;-40
2022/01/19 03:29:53;;;;;;;;;;;-0.30;75.90;;;;;;5026261;28;86995;-40
2022/01/19 03:32:19;;;;;;;;;;;-0.30;75.80;;;;;;5022946;28;88009;-41
2022/01/19 03:34:44;;;;;;;;;;;-0.30;75.80;;;;;;5022896;28;87996;-41
2022/01/19 03:37:11;;;;;;;;;;;-0.30;75.90;;;;;;5023333;28;89823;-40
2022/01/19 03:39:37;;;;;;;;;;;-0.30;75.80;;;;;;5023199;28;89530;-40
2022/01/19 03:42:02;;;;;;;;;;;-0.30;75.90;;;;;;5022891;28;87144;-40
2022/01/19 03:44:28;;;;;;;;;;;-0.30;75.80;;;;;;5023460;28;88799;-40
2022/01/19 03:46:59;;;;;;;;;;;-0.30;75.80;;;;;;5022830;28;89238;-40
2022/01/19 03:49:26;;;;;;;;;;;-0.30;75.60;;;;;;5023650;28;87089;-40
2022/01/19 03:51:54;;;;;;;;;;;-0.30;75.70;;;;;;5026290;28;88798;-40
2022/01/19 03:54:20;;;;;;;;;;;-0.40;75.80;;;;;;5023132;28;87225;-40
2022/01/19 03:56:46;;;;;;;;;;;-0.40;75.80;;;;;;5023121;28;88933;-40
2022/01/19 03:59:11;;;;;;;;;;;-0.30;75.80;;;;;;5022043;28;90247;-41
2022/01/19 04:01:37;;;;;;;;;;;-0.40;75.70;;;;;;5022840;28;87149;-40
2022/01/19 04:09:24;;;;;;;;;;;-0.40;75.90;;;;;;5026069;28;87086;-40
2022/01/19 04:11:50;;;;;;;;;;;-0.40;75.90;;;;;;5026658;28;88694;-40
2022/01/19 04:14:22;;;;;;;;;;;-0.50;75.80;;;;;;5029061;28;89590;-40
2022/01/19 04:16:48;;;;;;;;;;;-0.50;75.80;;;;;;5027239;28;88927;-40
2022/01/19 04:21:42;;;;;;;;;;;-0.50;75.90;;;;;;5026435;28;87118;-40
2022/01/19 04:24:08;;;;;;;;;;;-0.50;76.10;;;;;;5025860;28;88785;-40
2022/01/19 04:26:33;;;;;;;;;;;-0.50;75.80;;;;;;5025901;28;88235;-40
2022/01/19 04:28:59;;;;;;;;;;;-0.50;76.20;;;;;;5026199;28;87139;-40
2022/01/19 04:31:24;;;;;;;;;;;-0.50;76.00;;;;;;5026263;28;88202;-40
2022/01/19 04:33:50;;;;;;;;;;;-0.50;76.10;;;;;;5025931;28;89419;-40
2022/01/19 04:39:27;;;;;;;;;;;-0.50;75.90;;;;;;5016089;28;87481;-40
2022/01/19 04:45:33;;;;;;;;;;;-0.60;76.00;;;;;;5025052;28;87019;-40
2022/01/19 05:03:58;;;;;;;;;;;-0.70;75.80;;;;;;5026079;28;86893;-41
2022/01/19 05:06:25;;;;;;;;;;;-0.70;76.10;;;;;;5025404;28;89033;-40
2022/01/19 05:09:02;;;;;;;;;;;-0.70;75.70;;;;;;5025745;28;88743;-40
2022/01/19 05:14:12;;;;;;;;;;;-0.70;75.80;;;;;;5024690;28;86981;-40
2022/01/19 05:16:37;;;;;;;;;;;-0.70;75.70;;;;;;5023889;28;90378;-40
2022/01/19 05:19:03;;;;;;;;;;;-0.70;75.80;;;;;;5025332;28;86922;-41
2022/01/19 05:21:28;;;;;;;;;;;-0.70;76.10;;;;;;5027995;28;87551;-40
2022/01/19 05:23:54;;;;;;;;;;;-0.80;75.80;;;;;;5025277;28;86907;-40
2022/01/19 05:26:19;;;;;;;;;;;-0.80;75.90;;;;;;5025313;28;88550;-41
2022/01/19 05:28:45;;;;;;;;;;;-0.80;76.40;;;;;;5024967;28;89662;-40
2022/01/19 05:31:11;;;;;;;;;;;-0.80;76.00;;;;;;5025584;28;87136;-40
2022/01/19 05:33:36;;;;;;;;;;;-0.80;75.90;;;;;;5025656;28;88019;-40
2022/01/19 05:36:02;;;;;;;;;;;-0.80;76.10;;;;;;5024749;28;89713;-40
2022/01/19 05:38:28;;;;;;;;;;;-0.80;75.90;;;;;;5025222;28;87069;-41
2022/01/19 05:40:54;;;;;;;;;;;-0.80;75.90;;;;;;5023987;28;88902;-41
2022/01/19 05:43:20;;;;;;;;;;;-0.80;75.70;;;;;;5027666;28;89426;-40
2022/01/19 05:45:45;;;;;;;;;;;-0.80;75.90;;;;;;5025592;28;87422;-40
2022/01/19 05:48:11;;;;;;;;;;;-0.80;75.80;;;;;;5024305;28;89740;-40
2022/01/19 05:50:36;;;;;;;;;;;-0.80;75.70;;;;;;5025153;28;87143;-40
2022/01/19 05:53:02;;;;;;;;;;;-0.80;76.10;;;;;;5024940;28;88804;-40
2022/01/19 05:55:27;;;;;;;;;;;-0.80;76.00;;;;;;5024845;28;89483;-40
2022/01/19 05:57:53;;;;;;;;;;;-0.80;75.80;;;;;;5025409;28;86415;-40
2022/01/19 06:00:18;;;;;;;;;;;-0.90;75.80;;;;;;5024972;28;87967;-40
2022/01/19 06:02:44;;;;;;;;;;;-0.90;76.10;;;;;;5024058;28;89407;-40
2022/01/19 06:05:10;;;;;;;;;;;-0.90;76.00;;;;;;5027203;28;88118;-40
2022/01/19 06:07:45;;;;;;;;;;;-1.00;75.80;;;;;;5024281;28;88541;-40
2022/01/19 06:10:12;;;;;;;;;;;-0.90;76.00;;;;;;5024747;28;87055;-40
2022/01/19 06:12:38;;;;;;;;;;;-0.90;76.00;;;;;;5024596;28;87877;-40
2022/01/19 06:15:04;;;;;;;;;;;-0.90;76.00;;;;;;5024314;28;89684;-40
2022/01/19 06:17:30;;;;;;;;;;;-0.90;75.90;;;;;;5024334;28;87339;-40
2022/01/19 06:19:56;;;;;;;;;;;-0.90;75.80;;;;;;5024657;28;88969;-40
2022/01/19 06:22:21;;;;;;;;;;;-0.90;75.90;;;;;;5024579;28;88943;-41
2022/01/19 06:24:47;;;;;;;;;;;-0.90;76.00;;;;;;5024301;28;87101;-40
2022/01/19 06:27:13;;;;;;;;;;;-1.00;76.00;;;;;;5026862;28;87711;-40
2022/01/19 06:29:39;;;;;;;;;;;-1.00;76.00;;;;;;5023017;28;87914;-40
2022/01/19 06:32:04;;;;;;;;;;;-1.00;75.80;;;;;;5022938;28;91644;-40
2022/01/19 06:34:30;;;;;;;;;;;-1.00;76.00;;;;;;5023953;28;89866;-40
2022/01/19 06:36:55;;;;;;;;;;;-1.00;75.90;;;;;;5024343;28;87163;-40
2022/01/19 06:39:21;;;;;;;;;;;-1.00;75.90;;;;;;5024205;28;88890;-40
2022/01/19 06:41:47;;;;;;;;;;;-1.00;75.90;;;;;;5023524;28;89295;-40
2022/01/19 06:44:14;;;;;;;;;;;-1.00;76.00;;;;;;5024048;28;87176;-40
2022/01/19 06:46:40;;;;;;;;;;;-1.00;75.80;;;;;;5027113;28;88664;-40
2022/01/19 06:49:06;;;;;;;;;;;-1.00;75.70;;;;;;5024083;28;87049;-40
2022/01/19 06:51:31;;;;;;;;;;;-1.00;75.60;;;;;;5024191;28;87427;-40
2022/01/19 06:53:58;;;;;;;;;;;-1.00;75.60;;;;;;5023325;28;89484;-40
2022/01/19 06:56:23;;;;;;;;;;;-1.00;75.70;;;;;;5023959;28;87024;-40
2022/01/19 06:58:49;;;;;;;;;;;-1.00;75.70;;;;;;5024019;28;88827;-40
2022/01/19 07:01:14;;;;;;;;;;;-1.00;75.70;;;;;;5023276;28;88712;-40
2022/01/19 07:03:40;;;;;;;;;;;-1.00;75.60;;;;;;5024116;28;87302;-40
2022/01/19 07:06:07;;;;;;;;;;;-1.00;75.60;;;;;;5023880;28;88864;-40
2022/01/19 07:08:33;;;;;;;;;;;-1.00;75.70;;;;;;5026400;28;89553;-40
2022/01/19 07:10:59;;;;;;;;;;;-1.00;75.70;;;;;;5024430;28;87395;-40
2022/01/19 07:13:24;;;;;;;;;;;-1.00;75.70;;;;;;5023254;28;89603;-40
2022/01/19 07:15:50;;;;;;;;;;;-1.00;75.60;;;;;;5023501;28;87130;-40
2022/01/19 07:18:15;;;;;;;;;;;-1.10;75.60;;;;;;5023052;28;88032;-40
2022/01/19 07:20:41;;;;;;;;;;;-1.00;75.70;;;;;;5023262;28;89508;-40
2022/01/19 07:23:06;;;;;;;;;;;-1.10;75.60;;;;;;5023424;28;86856;-40
2022/01/19 07:25:32;;;;;;;;;;;-1.10;75.60;;;;;;5023696;28;89089;-40
2022/01/19 07:27:57;;;;;;;;;;;-1.10;75.80;;;;;;5023437;28;87852;-40
2022/01/19 07:30:24;;;;;;;;;;;-1.10;75.70;;;;;;5026511;28;87235;-40
2022/01/19 07:32:51;;;;;;;;;;;-1.10;75.90;;;;;;5022933;28;89173;-40
2022/01/19 07:35:17;;;;;;;;;;;-1.10;75.70;;;;;;5024030;28;86369;-40
2022/01/19 07:37:42;;;;;;;;;;;-1.20;75.80;;;;;;5023467;28;88273;-40
2022/01/19 07:40:08;;;;;;;;;;;-1.10;75.80;;;;;;5022731;28;89534;-40
2022/01/19 07:42:34;;;;;;;;;;;-1.20;76.00;;;;;;5022262;28;88059;-40
2022/01/19 07:45:00;;;;;;;;;;;-1.20;75.80;;;;;;5023646;28;88172;-41
2022/01/19 07:47:27;;;;;;;;;;;-1.10;75.90;;;;;;5022709;28;88006;-40
2022/01/19 07:49:53;;;;;;;;;;;-1.20;75.70;;;;;;5023185;28;87214;-40
2022/01/19 07:52:19;;;;;;;;;;;-1.20;75.90;;;;;;5025776;28;88849;-40
2022/01/19 07:54:44;;;;;;;;;;;-1.20;76.00;;;;;;5023040;28;87151;-40
2022/01/19 07:57:10;;;;;;;;;;;-1.20;76.00;;;;;;5023101;28;89401;-40
2022/01/19 07:59:35;;;;;;;;;;;-1.20;75.80;;;;;;5023146;28;89102;-41
2022/01/19 08:02:01;;;;;;;;;;;-1.20;75.80;;;;;;5022639;28;87077;-40
2022/01/19 08:04:26;;;;;;;;;;;-1.20;75.90;;;;;;5023051;28;88739;-40
2022/01/19 08:06:55;;;;;;;;;;;-1.20;75.90;;;;;;5022329;28;88938;-40
2022/01/19 08:09:25;;;;;;;;;;;-1.20;75.80;;;;;;5023038;28;87124;-40
2022/01/19 08:11:50;;;;;;;;;;;-1.20;75.80;;;;;;5022889;28;89149;-40
2022/01/19 08:14:16;;;;;;;;;;;-1.30;76.00;;;;;;5025473;28;89402;-40
2022/01/19 08:16:42;;;;;;;;;;;-1.20;75.90;;;;;;5022754;28;89435;-40
2022/01/19 08:19:07;;;;;;;;;;;-1.20;75.90;;;;;;5022873;28;89885;-40
2022/01/19 08:21:33;;;;;;;;;;;-1.20;76.00;;;;;;5022876;28;87200;-40
2022/01/19 08:23:59;;;;;;;;;;;-1.20;75.90;;;;;;5023378;28;89728;-40
2022/01/19 08:26:24;;;;;;;;;;;-1.30;76.00;;;;;;5021224;28;91113;-40
2022/01/19 08:28:50;;;;;;;;;;;-1.30;76.30;;;;;;5022747;28;87132;-40
2022/01/19 08:31:16;;;;;;;;;;;-1.30;76.20;;;;;;5021977;28;88084;-40
2022/01/19 08:33:41;;;;;;;;;;;-1.30;76.00;;;;;;5022207;28;89728;-40
2022/01/19 08:36:07;;;;;;;;;;;-1.20;75.90;;;;;;5025733;28;87209;-40
2022/01/19 08:38:33;;;;;;;;;;;-1.30;76.00;;;;;;5022509;28;88071;-40
2022/01/19 08:40:58;;;;;;;;;;;-1.20;76.00;;;;;;5022227;28;87104;-40
2022/01/19 08:43:24;;;;;;;;;;;-1.30;76.00;;;;;;5022443;28;89040;-40
2022/01/19 08:45:49;;;;;;;;;;;-1.30;76.10;;;;;;5022224;28;89190;-40
2022/01/19 08:48:16;;;;;;;;;;;-1.30;76.10;;;;;;5022967;28;86456;-40
2022/01/19 08:50:42;;;;;;;;;;;-1.30;76.10;;;;;;5022826;28;87009;-40
2022/01/19 08:53:07;;;;;;;;;;;-1.30;76.30;;;;;;5025487;28;89536;-40
2022/01/19 08:55:33;;;;;;;;;;;-1.30;76.30;;;;;;5026970;28;88064;-40
2022/01/19 08:57:58;;;;;;;;;;;-1.30;76.50;;;;;;5025433;28;89282;-40
2022/01/19 09:00:24;;;;;;;;;;;-1.30;76.30;;;;;;5025513;28;87257;-40
2022/01/19 09:02:50;;;;;;;;;;;-1.40;76.50;;;;;;5025724;28;88833;-40
2022/01/19 09:05:15;;;;;;;;;;;-1.40;76.50;;;;;;5025195;28;89144;-40
2022/01/19 09:07:41;;;;;;;;;;;-1.30;76.60;;;;;;5025460;28;87136;-41
2022/01/19 09:10:08;;;;;;;;;;;-1.40;76.90;;;;;;5025843;28;88778;-40
2022/01/19 09:12:34;;;;;;;;;;;-1.50;76.80;;;;;;5025808;28;87884;-40
2022/01/19 09:15:00;;;;;;;;;;;-1.50;77.00;;;;;;5025747;28;87201;-40
2022/01/19 09:17:26;;;;;;;;;;;-1.50;77.40;;;;;;5027937;28;88612;-40
2022/01/19 09:19:51;;;;;;;;;;;-1.50;77.20;;;;;;5024852;28;88151;-40
2022/01/19 09:22:17;;;;;;;;;;;-1.50;77.40;;;;;;5025529;28;88514;-40
2022/01/19 09:24:42;;;;;;;;;;;-1.50;77.60;;;;;;5025028;28;89448;-40
2022/01/19 09:27:09;;;;;;;;;;;-1.60;77.50;;;;;;5025403;28;87063;-40
2022/01/19 09:29:38;;;;;;;;;;;-1.60;77.80;;;;;;5025334;28;88711;-40
2022/01/19 09:32:07;;;;;;;;;;;-1.70;77.90;;;;;;5024931;28;89504;-40
2022/01/19 09:34:33;;;;;;;;;;;-1.70;78.00;;;;;;5025271;28;87178;-40
2022/01/19 09:36:59;;;;;;;;;;;-1.60;78.20;;;;;;5024546;28;89297;-41
2022/01/19 09:39:26;;;;;;;;;;;-1.70;78.10;;;;;;5027688;28;89274;-40
2022/01/19 09:41:52;;;;;;;;;;;-1.70;78.10;;;;;;5024380;28;88887;-40
2022/01/19 09:44:20;;;;;;;;;;;-1.60;78.20;;;;;;5024004;28;89291;-41
2022/01/19 09:46:46;;;;;;;;;;;-1.70;78.20;;;;;;5025148;28;87100;-40
2022/01/19 09:49:12;;;;;;;;;;;-1.60;78.20;;;;;;5025348;28;87285;-40
2022/01/19 09:51:41;;;;;;;;;;;-1.60;78.20;;;;;;5024638;28;89580;-40
2022/01/19 09:54:07;;;;;;;;;;;-1.70;78.20;;;;;;5025298;28;87053;-40
2022/01/19 09:56:33;;;;;;;;;;;-1.70;78.40;;;;;;5024869;28;88839;-40
2022/01/19 09:58:58;;;;;;;;;;;-1.70;78.30;;;;;;5024709;28;87119;-40
2022/01/19 10:01:24;;;;;;;;;;;-1.60;78.30;;;;;;5028108;28;86225;-40
2022/01/19 10:03:50;;;;;;;;;;;-1.70;78.30;;;;;;5024716;28;89231;-40
2022/01/19 10:06:17;;;;;;;;;;;-1.70;78.50;;;;;;5024932;28;87124;-40
2022/01/19 10:08:54;;;;;;;;;;;-1.70;78.50;;;;;;5024096;28;88517;-40
2022/01/19 10:16:57;;;;;;;;;;;-1.70;78.70;;;;;;5024398;28;88302;-40
2022/01/19 10:17:01;;;;;;;;;;;-1.70;78.50;;;;;;5025022;28;86916;-40
2022/01/19 10:19:29;;;;;;;;;;;-1.70;78.60;;;;;;5024126;28;89401;-40
2022/01/19 10:21:59;;;;;;;;;;;-1.70;78.70;;;;;;5024343;28;87180;-40
2022/01/19 10:24:57;;;;;;;;;;;-1.70;78.50;;;;;;5026940;28;88876;-40
2022/01/19 10:27:31;;;;;;;;;;;-1.70;78.60;;;;;;5034013;28;86457;-40
2022/01/19 10:30:11;;;;;;;;;;;-1.70;78.50;;;;;;5024427;28;88110;-41
2022/01/19 10:32:40;;;;;;;;;;;-1.70;78.90;;;;;;5023840;28;89372;-40
2022/01/19 10:35:13;;;;;;;;;;;-1.70;78.80;;;;;;5023685;28;88124;-40
2022/01/19 10:37:39;;;;;;;;;;;-1.70;78.80;;;;;;5023187;28;91306;-40
2022/01/19 10:40:05;;;;;;;;;;;-1.70;78.80;;;;;;5023795;28;89597;-40
2022/01/19 10:42:32;;;;;;;;;;;-1.70;78.80;;;;;;5023634;28;87128;-40
2022/01/19 10:44:59;;;;;;;;;;;-1.70;78.70;;;;;;5023885;28;88681;-40
2022/01/19 10:47:37;;;;;;;;;;;-1.70;78.80;;;;;;5026747;28;89469;-40
2022/01/19 10:50:03;;;;;;;;;;;-1.70;79.00;;;;;;5024312;28;88924;-40
2022/01/19 10:52:30;;;;;;;;;;;-1.60;78.80;;;;;;5024253;28;88696;-40
2022/01/19 10:54:59;;;;;;;;;;;-1.60;78.90;;;;;;5024092;28;87156;-40
2022/01/19 10:57:26;;;;;;;;;;;-1.60;78.80;;;;;;5023953;28;87799;-40
2022/01/19 10:59:53;;;;;;;;;;;-1.60;79.00;;;;;;5022943;28;90135;-40
2022/01/19 11:02:19;;;;;;;;;;;-1.60;79.00;;;;;;5023788;28;86741;-40
2022/01/19 11:04:45;;;;;;;;;;;-1.60;78.90;;;;;;5023961;28;87772;-40
2022/01/19 11:07:19;;;;;;;;;;;-1.60;79.10;;;;;;5026613;28;89150;-40
2022/01/19 11:09:46;;;;;;;;;;;-1.60;79.00;;;;;;5023942;28;88643;-40
2022/01/19 11:12:17;;;;;;;;;;;-1.60;79.00;;;;;;5023439;28;88104;-40
2022/01/19 11:14:43;;;;;;;;;;;-1.60;79.70;;;;;;5023085;28;87132;-40
2022/01/19 11:17:09;;;;;;;;;;;-1.60;79.10;;;;;;5024045;28;88623;-40
2022/01/19 11:19:36;;;;;;;;;;;-1.60;78.90;;;;;;5023282;28;89611;-40
2022/01/19 11:22:20;;;;;;;;;;;-1.60;79.20;;;;;;5023484;28;86943;-40
2022/01/19 11:24:54;;;;;;;;;;;-1.60;79.10;;;;;;5021520;28;90822;-40
2022/01/19 11:27:20;;;;;;;;;;;-1.60;79.00;;;;;;5023455;28;89695;-40
2022/01/19 11:30:05;;;;;;;;;;;-1.60;79.00;;;;;;5026464;28;87167;-40
2022/01/19 11:32:31;;;;;;;;;;;-1.50;78.80;;;;;;5023185;27;89477;-40
2022/01/19 11:34:56;;;;;;;;;;;-1.50;78.70;;;;;;5023313;28;87212;-40
2022/01/19 11:37:41;;;;;;;;;;;-1.50;78.60;;;;;;5023237;28;89511;-40
2022/01/19 11:40:09;;;;;;;;;;;-1.50;78.60;;;;;;5022968;28;89501;-40
2022/01/19 11:42:35;;;;;;;;;;;-1.40;78.70;;;;;;5023560;28;86353;-40
2022/01/19 11:45:01;;;;;;;;;;;-1.40;78.10;;;;;;5023443;28;88234;-40
2022/01/19 11:47:29;;;;;;;;;;;-1.40;78.40;;;;;;5023076;28;87928;-40
2022/01/19 11:49:58;;;;;;;;;;;-1.40;78.20;;;;;;5022330;28;88077;-40
2022/01/19 11:52:27;;;;;;;;;;;-1.40;78.60;;;;;;5025853;28;89729;-40
2022/01/19 11:55:08;;;;;;;;;;;-1.40;78.70;;;;;;5023222;28;86952;-40
2022/01/19 11:57:34;;;;;;;;;;;-1.50;78.80;;;;;;5023199;28;88780;-40
2022/01/19 12:00:06;;;;;;;;;;;-1.50;78.70;;;;;;5022749;28;89313;-40
2022/01/19 12:02:36;;;;;;;;;;;-1.50;78.80;;;;;;5022947;28;87096;-40
2022/01/19 12:05:04;;;;;;;;;;;-1.50;79.00;;;;;;5022998;28;88650;-40
2022/01/19 12:07:39;;;;;;;;;;;-1.50;79.10;;;;;;5023406;28;87352;-40
2022/01/19 12:10:06;;;;;;;;;;;-1.40;79.00;;;;;;5022897;28;87121;-40
2022/01/19 12:12:37;;;;;;;;;;;-1.50;79.10;;;;;;5022910;28;88666;-40
2022/01/19 12:15:07;;;;;;;;;;;-1.50;79.20;;;;;;5024629;28;90057;-40
2022/01/19 12:17:54;;;;;;;;;;;-1.50;79.20;;;;;;5022983;28;89815;-40
2022/01/19 12:20:39;;;;;;;;;;;-1.50;79.20;;;;;;5022842;28;89168;-40
2022/01/19 12:23:23;;;;;;;;;;;-1.50;79.20;;;;;;5022790;28;87111;-40
2022/01/19 12:25:51;;;;;;;;;;;-1.50;79.40;;;;;;5023257;28;87400;-40
2022/01/19 12:28:36;;;;;;;;;;;-1.50;79.40;;;;;;5026052;28;89806;-40
2022/01/19 12:31:21;;;;;;;;;;;-1.40;79.50;;;;;;5026247;28;87136;-40
2022/01/19 12:34:02;;;;;;;;;;;-1.40;79.50;;;;;;5026371;27;89754;-40
2022/01/19 12:36:44;;;;;;;;;;;-1.40;79.40;;;;;;5025977;28;88035;-40
2022/01/19 12:39:29;;;;;;;;;;;-1.40;79.40;;;;;;5029058;28;86932;-40
2022/01/19 12:41:56;;;;;;;;;;;-1.40;79.30;;;;;;5026355;27;90425;-40
2022/01/19 12:44:41;;;;;;;;;;;-1.40;79.40;;;;;;5026050;28;86871;-40
2022/01/19 12:47:25;;;;;;;;;;;-1.40;79.30;;;;;;5025995;28;88745;-40
2022/01/19 12:49:56;;;;;;;;;;;-1.30;79.50;;;;;;5025732;28;89445;-40
2022/01/19 12:52:23;;;;;;;;;;;-1.30;79.20;;;;;;5025783;28;87169;-40
2022/01/19 12:54:49;;;;;;;;;;;-1.30;79.30;;;;;;5025818;28;88890;-40
2022/01/19 12:57:15;;;;;;;;;;;-1.30;79.50;;;;;;5025472;28;88604;-40
2022/01/19 12:59:45;;;;;;;;;;;-1.30;79.50;;;;;;5026132;28;86241;-40
2022/01/19 13:02:14;;;;;;;;;;;-1.30;79.80;;;;;;5028189;28;88129;-40
2022/01/19 13:04:40;;;;;;;;;;;-1.20;79.10;;;;;;5025733;28;87139;-40
2022/01/19 13:07:16;;;;;;;;;;;-1.20;79.60;;;;;;5024964;28;87887;-40
2022/01/19 13:10:05;;;;;;;;;;;-1.20;79.30;;;;;;5024982;28;89167;-40
2022/01/19 13:12:32;;;;;;;;;;;-1.30;79.30;;;;;;5025451;28;86925;-40
2022/01/19 13:14:57;;;;;;;;;;;-1.20;79.30;;;;;;5025545;28;87812;-40
2022/01/19 13:17:23;;;;;;;;;;;-1.20;79.40;;;;;;5025051;28;90079;-40
2022/01/19 13:19:48;;;;;;;;;;;-1.20;79.40;;;;;;5025285;28;87087;-40
2022/01/19 13:22:14;;;;;;;;;;;-1.20;79.70;;;;;;5027844;28;88719;-40
2022/01/19 13:24:39;;;;;;;;;;;-1.20;79.60;;;;;;5026188;28;85978;-40
2022/01/19 13:27:06;;;;;;;;;;;-1.20;79.60;;;;;;5025477;28;88318;-40
2022/01/19 13:29:37;;;;;;;;;;;-1.10;79.90;;;;;;5024924;28;89289;-40
2022/01/19 13:32:07;;;;;;;;;;;-1.10;79.20;;;;;;5024576;28;88080;-40
2022/01/19 13:34:35;;;;;;;;;;;-1.10;79.60;;;;;;5025379;28;89442;-40
2022/01/19 13:37:01;;;;;;;;;;;-1.10;79.80;;;;;;5024471;28;89371;-40
2022/01/19 13:39:28;;;;;;;;;;;-1.00;79.70;;;;;;5025360;28;87115;-40
2022/01/19 13:41:57;;;;;;;;;;;-1.00;78.90;;;;;;5024673;28;87920;-40
2022/01/19 13:44:31;;;;;;;;;;;-1.00;79.70;;;;;;5027661;28;89317;-40
2022/01/19 13:47:16;;;;;;;;;;;-0.90;79.40;;;;;;5024644;28;88467;-40
2022/01/19 13:49:42;;;;;;;;;;;-0.90;79.50;;;;;;5025420;28;88831;-40
2022/01/19 13:52:09;;;;;;;;;;;-0.90;79.10;;;;;;5025002;28;87133;-40
2022/01/19 13:54:40;;;;;;;;;;;-0.90;79.20;;;;;;5024898;28;87901;-40
2022/01/19 13:57:06;;;;;;;;;;;-0.80;79.20;;;;;;5023765;28;89274;-40
2022/01/19 13:59:31;;;;;;;;;;;-0.80;79.20;;;;;;5024653;28;87156;-40
2022/01/19 14:01:59;;;;;;;;;;;-0.80;79.20;;;;;;5024670;28;87979;-40
2022/01/19 14:04:26;;;;;;;;;;;-0.80;79.20;;;;;;5024446;28;89472;-40
2022/01/19 14:06:52;;;;;;;;;;;-0.80;79.20;;;;;;5027476;28;87188;-40
2022/01/19 14:09:20;;;;;;;;;;;-0.80;79.20;;;;;;5024285;28;88466;-40
2022/01/19 14:11:46;;;;;;;;;;;-0.80;79.10;;;;;;5024620;28;86963;-40
2022/01/19 14:14:14;;;;;;;;;;;-0.80;79.30;;;;;;5025228;28;87374;-40
2022/01/19 14:16:47;;;;;;;;;;;-0.70;79.30;;;;;;5024263;28;89651;-40
2022/01/19 14:19:24;;;;;;;;;;;-0.90;79.00;;;;;;5024402;28;87108;-40
2022/01/19 14:22:04;;;;;;;;;;;-0.80;79.30;;;;;;5023702;28;88755;-40
2022/01/19 14:24:44;;;;;;;;;;;-0.80;79.40;;;;;;5023896;28;89487;-40
2022/01/19 14:27:12;;;;;;;;;;;-0.70;79.40;;;;;;5024548;28;87016;-40
2022/01/19 14:29:56;;;;;;;;;;;-0.70;79.40;;;;;;5026968;28;88925;-40
2022/01/19 14:32:40;;;;;;;;;;;-0.70;79.40;;;;;;5024365;28;87152;-40
2022/01/19 14:35:19;;;;;;;;;;;-0.70;79.50;;;;;;5024372;28;88903;-40
2022/01/19 14:38:08;;;;;;;;;;;-0.70;79.50;;;;;;5023785;28;89427;-40
2022/01/19 14:40:35;;;;;;;;;;;-0.70;79.40;;;;;;5026082;27;86484;-40
2022/01/19 14:43:01;;;;;;;;;;;-0.60;79.30;;;;;;5024225;28;88145;-42
2022/01/19 14:45:35;;;;;;;;;;;-0.70;79.40;;;;;;5023510;28;89692;-40
2022/01/19 14:48:11;;;;;;;;;;;-0.70;79.50;;;;;;5023392;28;87831;-40
2022/01/19 14:50:36;;;;;;;;;;;-0.60;79.60;;;;;;5023317;28;89224;-40
2022/01/19 14:53:03;;;;;;;;;;;-0.60;79.60;;;;;;5026481;28;89694;-40
2022/01/19 14:55:30;;;;;;;;;;;-0.60;79.70;;;;;;5023805;28;88931;-40
2022/01/19 14:57:56;;;;;;;;;;;-0.60;79.70;;;;;;5023494;28;89566;-40
2022/01/19 15:00:23;;;;;;;;;;;-0.60;79.60;;;;;;5024171;28;86951;-40
2022/01/19 15:02:56;;;;;;;;;;;-0.60;79.70;;;;;;5023919;28;88637;-40
2022/01/19 15:05:22;;;;;;;;;;;-0.60;79.70;;;;;;5024064;28;88724;-40
2022/01/19 15:07:48;;;;;;;;;;;-0.60;79.50;;;;;;5023822;28;87129;-40
2022/01/19 15:10:13;;;;;;;;;;;-0.60;79.40;;;;;;5023691;28;89074;-40
2022/01/19 15:12:39;;;;;;;;;;;-0.60;79.40;;;;;;5022549;28;89548;-40
2022/01/19 15:15:06;;;;;;;;;;;-0.60;79.50;;;;;;5026507;28;86970;-39
2022/01/19 15:17:32;;;;;;;;;;;-0.60;79.50;;;;;;5023053;28;89847;-40
2022/01/19 15:19:57;;;;;;;;;;;-0.60;79.40;;;;;;5023874;28;87206;-40
2022/01/19 15:22:26;;;;;;;;;;;-0.60;79.40;;;;;;5023758;28;87489;-40
2022/01/19 15:24:52;;;;;;;;;;;-0.60;79.40;;;;;;5023043;28;89445;-40
2022/01/19 15:27:18;;;;;;;;;;;-0.60;79.60;;;;;;5023132;28;87006;-40
2022/01/19 15:29:43;;;;;;;;;;;-0.60;79.60;;;;;;5023827;28;89078;-40
2022/01/19 15:32:09;;;;;;;;;;;-0.50;79.60;;;;;;5023116;28;88809;-40
2022/01/19 15:34:34;;;;;;;;;;;-0.50;79.60;;;;;;5026587;28;87145;-40
2022/01/19 15:37:00;;;;;;;;;;;-0.50;79.50;;;;;;5022556;28;90529;-40
2022/01/19 15:39:25;;;;;;;;;;;-0.60;79.70;;;;;;5023463;28;87157;-40
2022/01/19 15:41:51;;;;;;;;;;;-0.50;79.60;;;;;;5022438;28;88385;-40